Time;durP1;ratioP1;P1;durP2;ratioP2;P2;SDS_P1;SDS_P2;PMS_P1;PMS_P2;Temp;Humidity;BMP_temperature;BMP_pressure;BME280_temperature;BME280_humidity;BME280_pressure;Samples;Min_cycle;Max_cycle;Signal;HPM_P1;HPM_P2
2023/08/10 00:02:03;;;;;;;6.35;1.67;;;;;;;14.45;73.81;102108.84;7399459;19;19918;-75
2023/08/10 00:04:32;;;;;;;9.00;1.83;;;;;;;14.40;73.72;102120.19;7401343;19;20260;-76
2023/08/10 00:07:03;;;;;;;5.65;1.27;;;;;;;14.37;74.18;102123.22;7399364;19;19946;-76
2023/08/10 00:09:32;;;;;;;6.10;1.38;;;;;;;14.33;74.19;102127.25;7401900;19;19914;-76
2023/08/10 00:12:00;;;;;;;4.45;1.65;;;;;;;14.31;74.28;102123.03;7401122;19;19919;-76
2023/08/10 00:14:29;;;;;;;6.82;1.80;;;;;;;14.28;74.63;102121.50;7400927;19;19915;-75
2023/08/10 00:16:58;;;;;;;2.08;1.38;;;;;;;14.25;74.44;102119.16;7400939;19;19942;-75
2023/08/10 00:19:26;;;;;;;4.82;1.73;;;;;;;14.24;74.65;102113.91;7400826;19;19923;-76
2023/08/10 00:21:55;;;;;;;4.63;1.30;;;;;;;14.24;74.66;102122.03;7399609;19;19918;-76
2023/08/10 00:24:26;;;;;;;4.97;2.08;;;;;;;14.21;75.03;102120.50;7400468;19;20276;-75
2023/08/10 00:26:55;;;;;;;4.07;1.33;;;;;;;14.15;74.98;102117.66;7400726;19;19919;-76
2023/08/10 00:29:23;;;;;;;5.60;1.90;;;;;;;14.12;74.87;102123.38;7400646;19;19943;-76
2023/08/10 00:31:52;;;;;;;3.08;1.38;;;;;;;14.06;75.13;102123.03;7400641;19;19945;-76
2023/08/10 00:34:21;;;;;;;5.97;1.70;;;;;;;14.03;74.96;102122.53;7400862;19;19934;-76
2023/08/10 00:36:49;;;;;;;5.13;1.88;;;;;;;13.99;75.21;102118.47;7400175;19;19918;-76
2023/08/10 00:39:18;;;;;;;8.70;1.90;;;;;;;13.95;75.40;102120.69;7399604;19;19931;-76
2023/08/10 00:41:51;;;;;;;5.53;1.92;;;;;;;13.93;75.89;102121.88;7398856;19;19922;-75
2023/08/10 00:44:20;;;;;;;1.60;1.40;;;;;;;13.90;75.40;102122.19;7404746;19;20249;-76
2023/08/10 00:46:49;;;;;;;7.57;1.77;;;;;;;13.87;75.46;102122.53;7400504;19;19919;-76
2023/08/10 00:49:18;;;;;;;4.32;1.40;;;;;;;13.84;75.46;102128.28;7400114;19;19923;-76
2023/08/10 00:51:47;;;;;;;2.60;1.73;;;;;;;13.80;75.73;102127.78;7399954;19;19918;-75
2023/08/10 00:54:16;;;;;;;3.78;1.58;;;;;;;13.78;76.16;102131.66;7399621;19;19915;-76
2023/08/10 00:56:45;;;;;;;4.65;1.52;;;;;;;13.73;76.10;102126.75;7397440;19;19926;-75
2023/08/10 00:59:16;;;;;;;6.00;1.73;;;;;;;13.72;76.35;102125.03;7399576;19;19926;-76
2023/08/10 01:01:45;;;;;;;6.38;2.15;;;;;;;13.69;76.32;102129.94;7398212;19;20115;-76
2023/08/10 01:04:13;;;;;;;4.95;1.65;;;;;;;13.66;76.30;102127.59;7399460;19;19946;-76
2023/08/10 01:06:49;;;;;;;5.05;1.60;;;;;;;13.63;76.56;102129.59;7399476;19;19906;-76
2023/08/10 01:09:24;;;;;;;6.95;1.70;;;;;;;13.60;76.78;102129.09;7399412;19;19993;-76
2023/08/10 01:12:01;;;;;;;2.70;1.40;;;;;;;13.57;76.63;102134.84;7399484;19;19928;-76
2023/08/10 01:14:38;;;;;;;;;;;;;;;13.34;78.52;102129.19;7401788;19;19914;-76
2023/08/10 01:17:12;;;;;;;6.45;1.70;;;;;;;13.49;76.97;102132.13;7399190;19;19922;-76
2023/08/10 01:19:43;;;;;;;3.17;2.15;;;;;;;13.50;76.54;102136.53;7399171;19;19942;-76
2023/08/10 01:22:23;;;;;;;3.42;1.73;;;;;;;13.46;77.49;102132.47;7397701;19;19950;-75
2023/08/10 01:25:03;;;;;;;3.85;1.70;;;;;;;13.46;77.58;102127.03;7398611;19;19918;-76
2023/08/10 01:27:32;;;;;;;3.53;1.33;;;;;;;13.53;76.64;102137.03;7398779;19;19921;-75
2023/08/10 01:30:01;;;;;;;4.15;1.60;;;;;;;13.57;76.70;102140.25;7398954;19;19935;-76
2023/08/10 01:32:32;;;;;;;6.68;1.80;;;;;;;13.58;77.05;102137.41;7398760;19;19923;-75
2023/08/10 01:35:05;;;;;;;4.03;1.35;;;;;;;13.59;76.65;102133.66;7398086;19;19922;-75
2023/08/10 01:37:34;;;;;;;5.80;1.77;;;;;;;13.57;76.59;102138.41;7398738;19;19978;-76
2023/08/10 01:40:07;;;;;;;3.08;1.65;;;;;;;13.55;77.04;102140.41;7397749;19;20268;-76
2023/08/10 01:42:37;;;;;;;4.65;1.52;;;;;;;13.53;76.84;102133.47;7398090;19;19929;-75
2023/08/10 01:45:07;;;;;;;4.70;1.60;;;;;;;13.51;77.23;102136.34;7398571;19;19923;-76
2023/08/10 01:47:42;;;;;;;3.13;1.35;;;;;;;13.51;77.40;102133.63;7398621;19;19966;-76
2023/08/10 01:50:11;;;;;;;3.10;1.48;;;;;;;13.49;77.41;102141.09;7398305;19;19931;-76
2023/08/10 01:52:44;;;;;;;3.72;1.60;;;;;;;13.47;77.37;102136.84;7398802;19;19934;-75
2023/08/10 01:55:16;;;;;;;5.72;1.90;;;;;;;13.41;77.84;102148.34;7398169;19;19938;-75
2023/08/10 01:57:45;;;;;;;2.47;1.77;;;;;;;13.37;77.83;102141.56;7398542;19;19922;-75
2023/08/10 02:00:14;;;;;;;4.25;1.88;;;;;;;13.37;77.96;102147.81;7398283;19;20015;-75
2023/08/10 02:02:43;;;;;;;5.97;1.55;;;;;;;13.37;78.04;102142.41;7399066;19;19914;-75
2023/08/10 02:05:13;;;;;;;4.38;1.85;;;;;;;13.38;78.00;102144.09;7399628;19;19962;-76
2023/08/10 02:07:42;;;;;;;4.72;1.90;;;;;;;13.36;78.08;102140.72;7402097;19;19988;-76
2023/08/10 02:10:12;;;;;;;4.72;1.60;;;;;;;13.37;77.98;102149.69;7405046;19;19923;-75
2023/08/10 02:12:43;;;;;;;6.95;2.00;;;;;;;13.38;78.57;102148.66;7405196;19;19922;-76
2023/08/10 02:15:12;;;;;;;7.88;2.00;;;;;;;13.34;78.45;102142.72;7404975;19;19918;-75
2023/08/10 02:17:41;;;;;;;6.72;2.10;;;;;;;13.34;78.73;102145.44;7404388;19;20264;-76
2023/08/10 02:20:12;;;;;;;7.15;1.90;;;;;;;13.38;78.38;102144.09;7404275;19;19930;-76
2023/08/10 02:22:42;;;;;;;4.78;1.75;;;;;;;13.41;78.38;102149.19;7401726;19;19994;-75
2023/08/10 02:25:11;;;;;;;5.10;1.80;;;;;;;13.46;78.24;102151.41;7404050;19;19928;-76
2023/08/10 02:27:43;;;;;;;3.45;1.60;;;;;;;13.48;78.38;102146.66;7403903;19;19918;-76
2023/08/10 02:30:14;;;;;;;5.75;1.60;;;;;;;13.49;78.20;102146.50;7403983;19;19929;-76
2023/08/10 02:32:42;;;;;;;5.95;2.95;;;;;;;13.50;78.56;102156.28;7403851;19;19964;-76
2023/08/10 02:35:11;;;;;;;4.30;1.88;;;;;;;13.48;78.55;102152.94;7402791;19;19915;-76
2023/08/10 02:37:40;;;;;;;5.50;1.90;;;;;;;13.49;78.28;102165.47;7403662;19;19910;-76
2023/08/10 02:40:11;;;;;;;3.78;1.50;;;;;;;13.52;78.38;102162.41;7402669;19;19932;-76
2023/08/10 02:42:44;;;;;;;5.18;1.70;;;;;;;13.53;78.54;102157.84;7403733;19;19926;-76
2023/08/10 02:45:13;;;;;;;5.50;1.88;;;;;;;13.52;78.25;102161.56;7404523;19;19922;-76
2023/08/10 02:47:42;;;;;;;4.32;1.88;;;;;;;13.49;78.45;102162.75;7403573;19;19918;-76
2023/08/10 02:50:11;;;;;;;2.15;1.45;;;;;;;13.48;78.85;102154.78;7403169;19;19922;-76
2023/08/10 02:52:40;;;;;;;5.03;1.83;;;;;;;13.48;78.57;102161.03;7403250;19;19918;-76
2023/08/10 02:55:10;;;;;;;6.28;1.58;;;;;;;13.50;78.77;102161.72;7403532;19;19941;-76
2023/08/10 02:57:39;;;;;;;4.00;1.33;;;;;;;13.50;79.01;102156.28;7403148;19;19942;-76
2023/08/10 03:00:12;;;;;;;3.42;1.58;;;;;;;13.50;79.36;102159.00;7402893;19;19942;-76
2023/08/10 03:02:40;;;;;;;8.02;1.98;;;;;;;13.47;79.10;102164.75;7400947;19;19940;-76
2023/08/10 03:05:11;;;;;;;6.32;1.67;;;;;;;13.43;79.27;102163.41;7403268;19;19918;-76
2023/08/10 03:07:40;;;;;;;4.45;1.70;;;;;;;13.39;79.42;102180.13;7403178;19;19919;-76
2023/08/10 03:10:10;;;;;;;2.65;2.05;;;;;;;13.36;79.60;102175.91;7402701;19;19921;-76
2023/08/10 03:12:39;;;;;;;6.10;1.77;;;;;;;13.34;79.42;102180.63;7402606;19;19918;-76
2023/08/10 03:15:12;;;;;;;2.92;1.90;;;;;;;13.35;79.70;102178.75;7402546;19;20360;-76
2023/08/10 03:17:40;;;;;;;4.20;1.58;;;;;;;13.34;79.52;102179.75;7402563;19;19941;-77
2023/08/10 03:20:13;;;;;;;4.03;1.58;;;;;;;13.35;79.29;102184.16;7400811;19;19928;-76
2023/08/10 03:22:42;;;;;;;4.70;1.80;;;;;;;13.34;79.20;102186.03;7400566;19;19923;-76
2023/08/10 03:25:11;;;;;;;3.25;1.65;;;;;;;13.32;79.45;102179.94;7402391;19;20622;-76
2023/08/10 03:27:40;;;;;;;4.63;2.42;;;;;;;13.30;79.36;102187.38;7402156;19;20303;-76
2023/08/10 03:30:12;;;;;;;3.53;1.63;;;;;;;13.32;79.48;102182.66;7401970;19;20298;-76
2023/08/10 03:32:41;;;;;;;5.30;2.03;;;;;;;13.32;79.59;102182.66;7402153;19;19958;-76
2023/08/10 03:35:10;;;;;;;4.97;1.90;;;;;;;13.34;79.54;102185.19;7401063;19;19961;-76
2023/08/10 03:37:39;;;;;;;3.42;1.50;;;;;;;13.35;79.69;102182.31;7402063;19;19919;-76
2023/08/10 03:40:10;;;;;;;5.38;1.73;;;;;;;13.39;79.70;102177.41;7400429;19;20019;-76
2023/08/10 03:42:40;;;;;;;5.10;1.75;;;;;;;13.39;79.69;102188.25;7402406;19;19914;-76
2023/08/10 03:45:12;;;;;;;3.88;2.05;;;;;;;13.40;79.85;102185.38;7401876;19;19915;-76
2023/08/10 03:47:40;;;;;;;;;;;;;;;13.24;81.29;102190.75;7405223;19;19923;-76
2023/08/10 03:50:10;;;;;;;7.18;2.03;;;;;;;13.36;79.84;102188.59;7401581;19;19950;-76
2023/08/10 03:52:39;;;;;;;6.07;1.70;;;;;;;13.38;79.43;102186.53;7401609;19;19922;-76
2023/08/10 03:55:08;;;;;;;5.47;1.90;;;;;;;13.40;79.59;102184.53;7401565;19;19922;-76
2023/08/10 03:57:37;;;;;;;5.65;1.60;;;;;;;13.43;79.67;102174.22;7401540;19;19910;-76
2023/08/10 04:00:06;;;;;;;5.72;1.77;;;;;;;13.49;79.64;102180.84;7401147;19;20406;-76
2023/08/10 04:02:38;;;;;;;4.88;1.90;;;;;;;13.49;79.90;102180.84;7400018;19;19914;-76
2023/08/10 04:05:10;;;;;;;7.80;1.90;;;;;;;13.49;79.57;102187.13;7401127;19;19938;-76
2023/08/10 04:07:40;;;;;;;7.38;2.20;;;;;;;13.49;79.95;102194.38;7400985;19;19997;-76
2023/08/10 04:10:10;;;;;;;5.57;2.13;;;;;;;13.46;79.97;102189.31;7401234;19;20275;-76
2023/08/10 04:12:40;;;;;;;4.32;1.88;;;;;;;13.43;79.92;102185.06;7401054;19;20284;-75
2023/08/10 04:15:10;;;;;;;4.93;1.55;;;;;;;13.44;80.05;102181.34;7401417;19;19922;-76
2023/08/10 04:17:41;;;;;;;3.38;2.33;;;;;;;13.44;80.05;102181.34;7400792;19;19922;-76
2023/08/10 04:20:30;;;;;;;3.65;1.77;;;;;;;13.47;79.96;102180.16;7399588;19;19922;-76
2023/08/10 04:22:59;;;;;;;3.97;1.80;;;;;;;13.50;79.91;102191.50;7399538;19;20347;-76
2023/08/10 04:25:27;;;;;;;7.90;2.25;;;;;;;13.52;79.84;102189.47;7400932;19;20237;-75
2023/08/10 04:27:56;;;;;;;6.45;2.20;;;;;;;13.53;80.81;102191.19;7400519;19;20284;-76
2023/08/10 04:30:29;;;;;;;6.57;2.10;;;;;;;13.57;80.44;102197.13;7397878;19;20244;-76
2023/08/10 04:33:00;;;;;;;6.60;2.13;;;;;;;13.60;80.28;102194.91;7400840;19;20633;-77
2023/08/10 04:35:29;;;;;;;4.07;3.13;;;;;;;13.63;80.53;102196.47;7400413;19;19923;-76
2023/08/10 04:37:57;;;;;;;4.25;1.95;;;;;;;13.67;80.30;102194.28;7400850;19;20259;-76
2023/08/10 04:40:26;;;;;;;4.43;2.13;;;;;;;13.69;80.22;102192.22;7399470;19;19923;-75
2023/08/10 04:42:55;;;;;;;5.45;2.28;;;;;;;13.72;80.31;102197.34;7401610;19;19923;-76
2023/08/10 04:45:24;;;;;;;6.03;2.22;;;;;;;13.72;80.10;102192.75;7400224;19;19918;-76
2023/08/10 04:47:54;;;;;;;3.90;1.83;;;;;;;13.74;80.36;102198.88;7400143;19;19914;-76
2023/08/10 04:50:25;;;;;;;5.22;2.30;;;;;;;13.78;80.44;102199.38;7400161;19;19914;-75
2023/08/10 04:52:54;;;;;;;6.72;1.92;;;;;;;13.79;80.39;102195.66;7399951;19;19990;-76
2023/08/10 04:55:24;;;;;;;8.05;2.85;;;;;;;13.84;80.21;102201.44;7399954;19;19915;-75
2023/08/10 04:57:53;;;;;;;4.55;2.83;;;;;;;13.88;80.11;102194.66;7400395;19;20263;-75
2023/08/10 05:00:23;;;;;;;5.22;2.30;;;;;;;13.90;80.55;102200.75;7399981;19;20220;-76
2023/08/10 05:02:53;;;;;;;5.10;2.40;;;;;;;13.92;80.28;102202.28;7399028;19;20264;-75
2023/08/10 05:05:21;;;;;;;5.28;2.10;;;;;;;13.94;80.40;102202.09;7399818;19;19918;-76
2023/08/10 05:07:52;;;;;;;6.10;2.10;;;;;;;13.97;80.48;102207.22;7399972;19;19930;-76
2023/08/10 05:10:21;;;;;;;6.50;2.67;;;;;;;13.98;80.31;102203.47;7399587;19;19925;-76
2023/08/10 05:12:50;;;;;;;7.82;2.58;;;;;;;14.02;80.15;102202.16;7399269;19;19914;-76
2023/08/10 05:15:19;;;;;;;5.45;2.33;;;;;;;14.05;80.40;102202.66;7399338;19;19931;-76
2023/08/10 05:17:47;;;;;;;5.57;2.63;;;;;;;14.07;80.20;102197.06;7399699;19;19926;-76
2023/08/10 05:20:16;;;;;;;7.47;2.78;;;;;;;14.10;80.29;102204.88;7399833;19;20372;-76
2023/08/10 05:22:45;;;;;;;5.68;1.85;;;;;;;14.14;80.27;102211.66;7400058;19;19922;-75
2023/08/10 05:25:17;;;;;;;3.35;2.25;;;;;;;14.16;80.21;102201.47;7400306;19;19910;-76
2023/08/10 05:27:45;;;;;;;;;;;;;;;14.03;81.54;102196.53;7402845;19;19918;-76
2023/08/10 05:30:15;;;;;;;9.65;2.65;;;;;;;14.23;80.10;102202.50;7403062;19;20332;-76
2023/08/10 05:32:45;;;;;;;5.63;1.95;;;;;;;14.28;79.64;102202.81;7399643;19;19946;-76
2023/08/10 05:35:14;;;;;;;5.22;2.33;;;;;;;14.33;79.37;102200.47;7397938;19;19927;-75
2023/08/10 05:37:43;;;;;;;4.32;2.08;;;;;;;14.38;79.45;102203.56;7398470;19;19922;-76
2023/08/10 05:40:15;;;;;;;6.30;1.92;;;;;;;14.43;79.37;102198.47;7397828;19;20283;-76
2023/08/10 05:42:45;;;;;;;6.32;2.08;;;;;;;14.48;79.31;102197.97;7403777;19;19925;-75
2023/08/10 05:45:16;;;;;;;3.17;2.33;;;;;;;14.55;79.39;102201.69;7405292;19;19922;-76
2023/08/10 05:47:47;;;;;;;5.72;1.88;;;;;;;14.61;78.68;102192.03;7405287;19;19935;-76
2023/08/10 05:50:16;;;;;;;7.05;2.10;;;;;;;14.66;79.32;102189.66;7405625;19;19934;-76
2023/08/10 05:52:46;;;;;;;4.85;2.10;;;;;;;14.72;79.08;102191.66;7405644;19;19910;-76
2023/08/10 05:55:17;;;;;;;5.03;1.98;;;;;;;14.77;79.10;102194.69;7405273;19;20478;-76
2023/08/10 05:57:46;;;;;;;6.82;2.45;;;;;;;14.81;78.76;102196.06;7405864;19;20264;-76
2023/08/10 06:00:16;;;;;;;5.65;1.63;;;;;;;14.86;78.58;102199.09;7406091;19;19918;-76
2023/08/10 06:02:45;;;;;;;5.50;1.75;;;;;;;14.93;78.81;102194.66;7405787;19;19919;-76
2023/08/10 06:05:15;;;;;;;3.65;1.75;;;;;;;15.03;78.61;102191.75;7405915;19;19918;-76
2023/08/10 06:07:47;;;;;;;5.50;1.60;;;;;;;15.14;78.44;102199.56;7404646;19;19922;-76
2023/08/10 06:10:19;;;;;;;6.53;1.90;;;;;;;15.18;77.57;102200.91;7404403;19;19922;-76
2023/08/10 06:12:47;;;;;;;5.45;1.48;;;;;;;15.19;77.12;102208.84;7405017;19;19914;-76
2023/08/10 06:15:16;;;;;;;8.60;1.42;;;;;;;15.22;77.64;102213.09;7404649;19;20302;-76
2023/08/10 06:17:45;;;;;;;3.78;1.73;;;;;;;15.26;78.06;102204.44;7405102;19;20245;-76
2023/08/10 06:20:16;;;;;;;5.78;2.10;;;;;;;15.34;77.54;102204.41;7404930;19;19920;-75
2023/08/10 06:22:46;;;;;;;3.78;1.60;;;;;;;15.40;76.97;102213.72;7403297;19;19937;-76
2023/08/10 06:25:17;;;;;;;5.28;2.00;;;;;;;15.42;76.74;102215.22;7404719;19;20260;-76
2023/08/10 06:27:47;;;;;;;7.32;1.70;;;;;;;15.45;76.61;102209.44;7404936;19;19926;-76
2023/08/10 06:30:16;;;;;;;5.55;2.05;;;;;;;15.51;76.33;102217.94;7404598;19;19915;-76
2023/08/10 06:32:45;;;;;;;8.07;1.80;;;;;;;15.55;76.79;102216.53;7404228;19;19926;-75
2023/08/10 06:35:13;;;;;;;12.18;1.90;;;;;;;15.60;76.24;102219.59;7402663;19;19918;-75
2023/08/10 06:37:42;;;;;;;5.82;1.30;;;;;;;15.64;75.53;102223.63;7403934;19;19984;-76
2023/08/10 06:40:11;;;;;;;3.80;1.10;;;;;;;15.65;75.23;102217.19;7402336;19;19918;-76
2023/08/10 06:42:43;;;;;;;7.82;1.50;;;;;;;15.67;74.40;102218.69;7406045;19;19918;-75
2023/08/10 06:45:13;;;;;;;3.97;1.05;;;;;;;15.67;75.08;102223.28;7403659;19;19942;-76
2023/08/10 06:47:43;;;;;;;5.43;1.50;;;;;;;15.68;75.48;102225.81;7403464;19;20273;-75
2023/08/10 06:50:12;;;;;;;2.78;1.40;;;;;;;15.70;76.05;102222.94;7403699;19;19927;-75
2023/08/10 06:52:41;;;;;;;5.43;2.03;;;;;;;15.69;76.38;102216.66;7403918;19;19929;-76
2023/08/10 06:55:11;;;;;;;7.68;1.63;;;;;;;15.69;76.64;102221.25;7401448;19;19915;-76
2023/08/10 06:57:44;;;;;;;7.40;1.70;;;;;;;15.68;76.33;102222.25;7403574;19;19914;-76
2023/08/10 07:00:20;;;;;;;6.47;1.60;;;;;;;15.70;76.77;102214.78;7403228;19;19942;-76
2023/08/10 07:02:50;;;;;;;6.00;1.63;;;;;;;15.73;75.53;102219.88;7403139;19;20290;-75
2023/08/10 07:05:19;;;;;;;3.33;1.15;;;;;;;15.74;75.11;102224.28;7403497;19;19929;-75
2023/08/10 07:07:47;;;;;;;5.70;1.20;;;;;;;15.74;74.42;102216.13;7403668;19;19938;-76
2023/08/10 07:10:16;;;;;;;3.05;1.02;;;;;;;15.74;74.42;102213.41;7403321;19;19922;-75
2023/08/10 07:12:47;;;;;;;5.95;1.17;;;;;;;15.75;74.09;102215.94;7403404;19;19950;-75
2023/08/10 07:15:17;;;;;;;3.85;1.15;;;;;;;15.76;74.31;102220.34;7403205;19;19911;-75
2023/08/10 07:17:46;;;;;;;5.15;1.30;;;;;;;15.78;73.43;102221.03;7403366;19;19914;-75
2023/08/10 07:20:18;;;;;;;6.47;1.10;;;;;;;15.83;72.82;102217.78;7402752;19;19919;-75
2023/08/10 07:22:47;;;;;;;6.45;1.48;;;;;;;15.87;72.29;102222.69;7402362;19;19922;-75
2023/08/10 07:25:17;;;;;;;4.40;1.05;;;;;;;15.93;72.10;102222.97;7402630;19;19918;-75
2023/08/10 07:27:48;;;;;;;4.20;1.08;;;;;;;15.96;71.60;102230.78;7402947;19;19919;-75
2023/08/10 07:30:17;;;;;;;5.75;1.30;;;;;;;15.98;71.40;102221.41;7402980;19;19918;-75
2023/08/10 07:32:46;;;;;;;8.20;1.00;;;;;;;16.01;70.91;102221.03;7402652;19;19970;-75
2023/08/10 07:35:15;;;;;;;4.15;0.85;;;;;;;16.04;70.98;102230.72;7401709;19;19942;-75
2023/08/10 07:37:44;;;;;;;3.88;1.15;;;;;;;16.09;71.46;102239.19;7403094;19;19922;-75
2023/08/10 07:40:13;;;;;;;4.47;1.00;;;;;;;16.14;70.83;102236.75;7401878;19;19919;-75
2023/08/10 07:42:42;;;;;;;2.88;0.90;;;;;;;16.22;70.43;102242.16;7404930;19;20329;-75
2023/08/10 07:45:13;;;;;;;2.63;0.90;;;;;;;16.31;70.96;102236.47;7401567;19;19931;-75
2023/08/10 07:47:43;;;;;;;3.35;1.10;;;;;;;16.39;70.69;102234.72;7402132;19;19950;-76
2023/08/10 07:50:13;;;;;;;8.18;1.15;;;;;;;16.46;70.17;102244.69;7401977;19;19919;-75
2023/08/10 07:52:42;;;;;;;6.35;1.08;;;;;;;16.51;69.95;102246.88;7402111;19;19990;-76
2023/08/10 07:55:12;;;;;;;4.53;1.02;;;;;;;16.59;69.28;102252.28;7400261;19;19923;-75
2023/08/10 07:57:41;;;;;;;3.17;0.82;;;;;;;16.66;69.22;102253.22;7401635;19;19926;-75
2023/08/10 08:00:14;;;;;;;1.85;0.82;;;;;;;16.69;68.70;102255.59;7401317;19;19922;-75
2023/08/10 08:02:43;;;;;;;6.55;1.27;;;;;;;16.79;68.13;102254.28;7401277;19;19915;-75
2023/08/10 08:05:12;;;;;;;6.28;1.10;;;;;;;16.89;68.14;102258.63;7400456;19;20405;-76
2023/08/10 08:07:40;;;;;;;8.82;1.27;;;;;;;16.96;67.94;102252.25;7401163;19;20367;-76
2023/08/10 08:10:10;;;;;;;4.35;1.08;;;;;;;17.06;68.15;102261.03;7401086;19;19918;-75
2023/08/10 08:12:38;;;;;;;7.85;1.73;;;;;;;17.18;68.45;102251.34;7401460;19;19914;-75
2023/08/10 08:15:08;;;;;;;8.60;1.58;;;;;;;17.27;66.97;102257.56;7400958;19;19944;-75
2023/08/10 08:18:07;;;;;;;3.28;0.80;;;;;;;17.30;65.82;102256.34;7401041;19;19931;-75
2023/08/10 08:20:38;;;;;;;8.85;0.88;;;;;;;17.28;66.56;102266.56;7401189;19;19910;-75
2023/08/10 08:23:06;;;;;;;5.57;0.80;;;;;;;17.21;66.67;102270.03;7401921;19;19922;-76
2023/08/10 08:25:35;;;;;;;3.00;1.40;;;;;;;17.20;66.03;102270.25;7400890;19;20327;-76
2023/08/10 08:28:04;;;;;;;1.25;0.90;;;;;;;17.19;65.75;102263.94;7401085;19;19915;-75
2023/08/10 08:30:33;;;;;;;8.43;1.08;;;;;;;17.22;65.78;102277.19;7400417;19;19919;-76
2023/08/10 08:33:01;;;;;;;7.82;1.30;;;;;;;17.13;65.66;102264.69;7400872;19;19914;-76
2023/08/10 08:35:30;;;;;;;2.70;0.80;;;;;;;17.10;66.03;102270.50;7399716;19;19925;-75
2023/08/10 08:38:01;;;;;;;3.63;1.00;;;;;;;17.07;66.34;102273.59;7400684;19;19910;-76
2023/08/10 08:40:30;;;;;;;4.57;1.00;;;;;;;17.05;66.37;102270.22;7400932;19;20472;-76
2023/08/10 08:43:02;;;;;;;7.00;1.13;;;;;;;17.13;66.43;102270.13;7401052;19;20300;-77
2023/08/10 08:45:31;;;;;;;3.55;1.08;;;;;;;17.20;66.47;102267.53;7401656;19;19960;-76
2023/08/10 08:48:02;;;;;;;4.13;0.70;;;;;;;17.32;65.15;102266.03;7401327;19;19925;-76
2023/08/10 08:50:31;;;;;;;3.33;0.75;;;;;;;17.45;64.98;102260.75;7400526;19;20282;-76
2023/08/10 08:53:04;;;;;;;5.10;1.00;;;;;;;17.55;64.35;102265.94;7400027;19;19932;-76
2023/08/10 08:55:33;;;;;;;5.85;1.02;;;;;;;17.57;64.58;102261.13;7400002;19;19926;-75
2023/08/10 08:58:02;;;;;;;3.45;0.95;;;;;;;17.59;63.47;102264.56;7399561;19;19919;-76
2023/08/10 09:00:32;;;;;;;4.88;0.95;;;;;;;17.62;63.65;102262.28;7399758;19;19918;-75
2023/08/10 09:03:02;;;;;;;7.60;1.08;;;;;;;17.70;63.15;102269.50;7399242;19;20018;-76
2023/08/10 09:05:31;;;;;;;6.25;1.10;;;;;;;17.85;63.01;102267.63;7399305;19;19918;-75
2023/08/10 09:08:03;;;;;;;4.88;1.02;;;;;;;18.04;62.54;102256.09;7399056;19;19918;-75
2023/08/10 09:10:32;;;;;;;3.92;0.80;;;;;;;18.27;62.05;102261.38;7399565;19;19929;-76
2023/08/10 09:13:12;;;;;;;3.55;1.10;;;;;;;18.31;60.95;102262.69;7399203;19;19922;-75
2023/08/10 09:15:41;;;;;;;5.30;1.17;;;;;;;18.43;61.25;102261.13;7398858;19;20361;-76
2023/08/10 09:18:10;;;;;;;4.25;1.00;;;;;;;18.43;59.68;102263.84;7404587;19;19921;-75
2023/08/10 09:20:38;;;;;;;4.65;0.95;;;;;;;18.46;60.02;102257.19;7406648;19;19954;-77
2023/08/10 09:23:10;;;;;;;4.38;1.00;;;;;;;18.53;59.32;102250.75;7405690;19;20337;-76
2023/08/10 09:25:40;;;;;;;3.95;1.02;;;;;;;18.70;59.89;102251.34;7405254;19;20308;-76
2023/08/10 09:28:13;;;;;;;6.28;1.10;;;;;;;18.76;59.53;102255.16;7405303;19;19929;-76
2023/08/10 09:30:42;;;;;;;3.55;1.10;;;;;;;18.83;59.49;102256.06;7403775;19;19933;-76
2023/08/10 09:33:10;;;;;;;5.15;1.10;;;;;;;18.86;58.80;102250.19;7405272;19;19926;-75
2023/08/10 09:35:39;;;;;;;2.60;1.05;;;;;;;18.87;58.40;102255.47;7403437;19;19938;-77
2023/08/10 09:38:10;;;;;;;3.63;1.25;;;;;;;18.84;58.01;102257.75;7405827;19;20396;-75
2023/08/10 09:40:39;;;;;;;3.17;0.90;;;;;;;18.81;59.12;102248.06;7403323;19;19918;-76
2023/08/10 09:43:11;;;;;;;4.65;1.20;;;;;;;18.84;58.62;102250.41;7404915;19;19934;-75
2023/08/10 09:45:40;;;;;;;3.28;1.20;;;;;;;18.90;59.30;102254.22;7404636;19;19918;-75
2023/08/10 09:48:13;;;;;;;5.38;1.42;;;;;;;18.87;58.52;102252.75;7405008;19;19922;-76
2023/08/10 09:50:42;;;;;;;5.03;0.80;;;;;;;18.88;58.60;102253.59;7405168;19;19922;-76
2023/08/10 09:53:13;;;;;;;6.00;1.05;;;;;;;18.85;57.30;102257.56;7404203;19;20241;-74
2023/08/10 09:55:42;;;;;;;;;;;;;;;18.71;57.62;102261.22;7407037;19;19919;-75
2023/08/10 09:58:10;;;;;;;3.38;1.00;;;;;;;18.87;58.62;102263.66;7404428;19;19918;-74
2023/08/10 10:00:43;;;;;;;4.20;1.05;;;;;;;18.96;57.86;102256.16;7404583;19;19918;-74
2023/08/10 10:03:11;;;;;;;3.22;1.10;;;;;;;19.06;57.99;102262.13;7404390;19;20652;-74
2023/08/10 10:05:40;;;;;;;6.45;1.15;;;;;;;19.11;57.65;102258.81;7401421;19;20308;-75
2023/08/10 10:08:11;;;;;;;5.28;1.23;;;;;;;19.15;56.88;102260.09;7404008;19;19940;-74
2023/08/10 10:10:45;;;;;;;2.38;0.88;;;;;;;19.23;56.66;102258.06;7404365;19;20018;-74
2023/08/10 10:13:15;;;;;;;2.65;0.90;;;;;;;19.33;57.41;102252.19;7404741;19;19918;-75
2023/08/10 10:15:44;;;;;;;4.28;0.80;;;;;;;19.39;57.25;102260.47;7404381;19;19918;-74
2023/08/10 10:18:14;;;;;;;3.53;1.00;;;;;;;19.43;56.81;102247.25;7403863;19;20336;-75
2023/08/10 10:20:45;;;;;;;9.77;0.93;;;;;;;19.50;56.94;102248.16;7403864;19;19931;-75
2023/08/10 10:23:19;;;;;;;4.13;0.70;;;;;;;19.52;56.50;102243.31;7403669;19;19920;-75
2023/08/10 10:26:06;;;;;;;2.75;0.85;;;;;;;19.50;55.54;102237.22;7401090;19;20313;-75
2023/08/10 10:28:36;;;;;;;4.45;0.98;;;;;;;19.60;56.73;102243.16;7403340;19;19919;-75
2023/08/10 10:31:13;;;;;;;3.47;0.80;;;;;;;19.59;54.81;102246.91;7403643;19;19919;-75
2023/08/10 10:33:57;;;;;;;3.55;0.80;;;;;;;19.59;54.32;102244.19;7404145;19;19942;-75
2023/08/10 10:36:25;;;;;;;2.80;0.90;;;;;;;19.62;55.95;102246.53;7401753;19;19926;-75
2023/08/10 10:39:07;;;;;;;5.13;1.52;;;;;;;19.63;55.94;102241.91;7403320;19;19942;-75
2023/08/10 10:41:38;;;;;;;3.42;0.90;;;;;;;19.63;55.91;102245.47;7406695;19;19918;-75
2023/08/10 10:44:08;;;;;;;4.82;1.00;;;;;;;19.70;55.76;102245.50;7402785;19;19922;-75
2023/08/10 10:46:38;;;;;;;5.65;1.05;;;;;;;19.74;55.70;102250.38;7403295;19;19914;-75
2023/08/10 10:49:09;;;;;;;3.50;1.00;;;;;;;19.77;54.45;102240.91;7403460;19;19918;-75
2023/08/10 10:51:54;;;;;;;3.92;0.63;;;;;;;19.80;54.64;102233.13;7403301;19;19919;-75
2023/08/10 10:54:24;;;;;;;3.60;0.88;;;;;;;19.89;54.83;102231.91;7403233;19;19925;-75
2023/08/10 10:56:56;;;;;;;1.90;0.70;;;;;;;19.86;53.52;102236.94;7402443;19;19921;-75
2023/08/10 10:59:25;;;;;;;4.07;0.95;;;;;;;19.84;55.28;102228.97;7403246;19;20336;-75
2023/08/10 11:01:54;;;;;;;3.15;0.80;;;;;;;19.84;54.34;102245.38;7402889;19;19915;-75
2023/08/10 11:04:24;;;;;;;3.88;0.82;;;;;;;19.71;54.28;102233.53;7402035;19;20373;-74
2023/08/10 11:06:52;;;;;;;7.75;1.13;;;;;;;19.76;55.16;102231.03;7402563;19;19919;-75
2023/08/10 11:09:23;;;;;;;1.50;0.70;;;;;;;19.84;54.73;102233.59;7402441;19;19914;-74
2023/08/10 11:11:52;;;;;;;6.28;1.33;;;;;;;20.01;54.82;102239.53;7402780;19;19918;-74
2023/08/10 11:14:24;;;;;;;2.28;0.70;;;;;;;20.05;53.22;102236.19;7402293;19;19922;-74
2023/08/10 11:16:54;;;;;;;2.15;0.80;;;;;;;20.15;54.14;102236.59;7402337;19;19961;-74
2023/08/10 11:19:22;;;;;;;3.00;0.73;;;;;;;20.16;53.23;102234.72;7402743;19;19942;-74
2023/08/10 11:21:52;;;;;;;8.43;2.03;;;;;;;20.18;53.50;102230.75;7402212;19;20260;-74
2023/08/10 11:24:21;;;;;;;1.75;0.60;;;;;;;20.23;52.97;102228.22;7402452;19;19941;-74
2023/08/10 11:26:51;;;;;;;3.28;0.70;;;;;;;20.26;53.07;102233.28;7402152;19;20352;-74
2023/08/10 11:29:23;;;;;;;2.08;0.90;;;;;;;20.24;52.08;102234.50;7401895;19;20272;-75
2023/08/10 11:31:52;;;;;;;2.47;0.70;;;;;;;20.17;52.40;102231.78;7401707;19;19948;-74
2023/08/10 11:34:22;;;;;;;6.68;1.58;;;;;;;20.20;52.52;102225.88;7401688;19;19926;-74
2023/08/10 11:36:52;;;;;;;2.88;0.90;;;;;;;20.27;53.15;102229.50;7402964;19;20597;-75
2023/08/10 11:39:22;;;;;;;2.65;0.80;;;;;;;20.29;52.55;102234.75;7400238;19;19930;-75
2023/08/10 11:41:51;;;;;;;3.40;1.17;;;;;;;20.27;51.78;102234.97;7404810;19;19930;-74